Time;durP1;ratioP1;P1;durP2;ratioP2;P2;SDS_P1;SDS_P2;PMS_P1;PMS_P2;Temp;Humidity;BMP_temperature;BMP_pressure;BME280_temperature;BME280_humidity;BME280_pressure;Samples;Min_cycle;Max_cycle;Signal;HPM_P1;HPM_P2
2021/11/28 00:03:04;;;;;;;1.40;1.30;;;;;;;1.84;98.18;94207.38;5285737;56;20133;-74
2021/11/28 00:18:30;;;;;;;1.27;1.17;;;;;;;1.90;98.43;94191.91;5285435;56;20111;-74
2021/11/28 00:23:33;;;;;;;1.50;1.40;;;;;;;1.89;98.51;94187.69;5285641;56;20677;-74
2021/11/28 00:28:36;;;;;;;1.90;1.70;;;;;;;1.94;98.38;94175.44;5284858;56;20119;-74
2021/11/28 00:33:38;;;;;;;1.52;1.42;;;;;;;2.00;97.96;94192.66;5285411;56;20115;-75
2021/11/28 00:38:41;;;;;;;1.05;1.05;;;;;;;2.05;97.74;94175.69;5285140;56;20596;-75
2021/11/28 00:43:44;;;;;;;1.40;1.30;;;;;;;2.05;97.16;94187.34;5285196;56;20119;-74
2021/11/28 00:48:46;;;;;;;1.55;1.45;;;;;;;2.05;97.83;94184.63;5284965;56;20649;-75
2021/11/28 00:53:51;;;;;;;1.38;1.27;;;;;;;2.08;97.67;94180.97;5285195;56;20212;-74
2021/11/28 00:58:53;;;;;;;1.58;1.48;;;;;;;2.04;97.44;94179.63;5291329;56;20646;-75
2021/11/28 01:03:56;;;;;;;1.60;1.50;;;;;;;2.01;97.39;94184.00;5285393;56;20689;-75
2021/11/28 01:08:58;;;;;;;1.45;1.35;;;;;;;2.17;97.13;94196.56;5284806;56;20681;-74
2021/11/28 01:14:02;;;;;;;2.22;2.03;;;;;;;2.18;96.59;94189.88;5284808;56;20216;-74
2021/11/28 01:19:07;;;;;;;1.63;1.52;;;;;;;2.10;97.09;94199.59;5285065;56;20154;-73
2021/11/28 01:24:09;;;;;;;1.70;1.60;;;;;;;2.12;97.00;94211.53;5284679;56;20120;-73
2021/11/28 01:29:12;;;;;;;1.85;1.75;;;;;;;2.22;96.50;94214.25;5284506;56;20129;-74
2021/11/28 01:34:14;;;;;;;2.33;1.40;;;;;;;2.19;96.64;94205.00;5281365;56;20115;-75
2021/11/28 01:39:17;;;;;;;1.45;1.35;;;;;;;2.22;96.80;94208.78;5259152;56;20141;-74
2021/11/28 01:44:19;;;;;;;1.13;1.13;;;;;;;2.30;96.09;94212.69;5263534;56;20121;-73
2021/11/28 01:49:22;;;;;;;2.05;1.48;;;;;;;2.27;95.89;94219.81;5263161;56;20138;-75
2021/11/28 01:54:25;;;;;;;1.40;1.30;;;;;;;2.32;95.33;94219.19;5263176;56;20668;-74
2021/11/28 01:59:29;;;;;;;1.38;1.27;;;;;;;2.22;95.50;94228.59;5263788;56;20116;-74
2021/11/28 02:04:31;;;;;;;1.55;1.45;;;;;;;2.25;93.96;94216.78;5254133;56;20129;-76
2021/11/28 02:09:38;;;;;;;1.38;1.25;;;;;;;2.50;92.63;94213.66;5263298;56;20147;-76
2021/11/28 02:14:40;;;;;;;1.08;1.08;;;;;;;2.48;92.95;94220.78;5263612;56;20116;-75
2021/11/28 02:19:42;;;;;;;0.80;0.80;;;;;;;2.44;94.54;94223.69;5275969;56;20125;-73
2021/11/28 02:24:45;;;;;;;1.45;1.17;;;;;;;2.36;96.17;94219.78;5268839;56;20121;-75
2021/11/28 02:29:47;;;;;;;0.75;0.75;;;;;;;2.27;97.19;94203.47;5264422;56;20691;-77
2021/11/28 02:34:50;;;;;;;0.88;0.88;;;;;;;2.36;97.36;94200.69;5263135;56;20120;-76
2021/11/28 02:39:53;;;;;;;1.00;1.00;;;;;;;2.33;97.56;94188.00;5263024;56;20119;-75
2021/11/28 02:44:55;;;;;;;1.55;0.80;;;;;;;2.38;97.32;94181.91;5262995;56;20125;-74
2021/11/28 02:49:58;;;;;;;1.08;0.95;;;;;;;2.41;97.04;94199.31;5263430;56;20142;-74
2021/11/28 02:55:03;;;;;;;8.85;1.02;;;;;;;2.35;98.28;94193.75;5265828;56;20116;-75
2021/11/28 03:00:07;;;;;;;3.78;0.98;;;;;;;2.30;98.00;94194.38;5266210;56;20576;-76
2021/11/28 03:05:09;;;;;;;1.67;0.63;;;;;;;2.34;97.82;94186.03;5266084;56;20116;-74
2021/11/28 03:10:35;;;;;;;0.77;0.77;;;;;;;2.41;97.72;94166.63;5265968;56;20130;-74
2021/11/28 03:15:37;;;;;;;0.60;0.60;;;;;;;2.46;97.43;94158.59;5262370;56;20643;-74
2021/11/28 03:20:40;;;;;;;3.50;1.08;;;;;;;2.42;97.06;94160.69;5265826;56;20143;-75
2021/11/28 03:25:43;;;;;;;1.05;0.65;;;;;;;2.38;97.53;94162.09;5265442;56;20129;-74
2021/11/28 03:30:47;;;;;;;0.73;0.73;;;;;;;2.37;98.01;94150.44;5265218;56;20656;-76
2021/11/28 03:35:50;;;;;;;0.88;0.88;;;;;;;2.39;97.63;94153.47;5257112;56;20115;-76
2021/11/28 03:40:52;;;;;;;1.67;1.42;;;;;;;2.38;97.71;94143.78;5266062;56;20139;-75
2021/11/28 03:45:55;;;;;;;0.60;0.60;;;;;;;2.41;97.25;94153.75;5265519;56;20116;-75
2021/11/28 03:50:58;;;;;;;0.80;0.80;;;;;;;2.19;97.88;94134.19;5272657;56;20146;-75
2021/11/28 03:56:03;;;;;;;0.95;0.77;;;;;;;2.21;98.64;94147.34;5282803;56;20116;-75
2021/11/28 04:01:11;;;;;;;1.15;1.05;;;;;;;2.35;98.06;94146.69;5265596;56;20164;-74
2021/11/28 04:06:14;;;;;;;2.10;0.90;;;;;;;2.29;97.83;94146.53;5265380;56;20111;-74
2021/11/28 04:11:17;;;;;;;0.80;0.80;;;;;;;2.22;97.96;94140.69;5265472;56;20659;-76
2021/11/28 04:16:19;;;;;;;1.75;0.98;;;;;;;2.16;98.38;94141.31;5264938;56;20623;-75
2021/11/28 04:21:22;;;;;;;1.08;0.98;;;;;;;2.19;98.05;94123.28;5265899;56;20129;-74
2021/11/28 04:26:24;;;;;;;2.10;0.70;;;;;;;2.14;98.39;94140.25;5264678;56;20175;-74
2021/11/28 04:31:27;;;;;;;0.70;0.70;;;;;;;2.12;98.79;94139.97;5264353;56;20138;-75
2021/11/28 04:36:29;;;;;;;0.90;0.90;;;;;;;2.07;98.81;94133.19;5264106;56;20642;-75
2021/11/28 04:41:32;;;;;;;0.55;0.55;;;;;;;2.16;98.68;94143.28;5264062;56;20124;-75
2021/11/28 04:46:34;;;;;;;0.90;0.90;;;;;;;2.11;98.49;94146.63;5263932;56;20693;-76
2021/11/28 04:51:37;;;;;;;1.02;1.00;;;;;;;2.08;99.22;94150.28;5264223;56;20193;-75
2021/11/28 04:56:39;;;;;;;1.35;1.25;;;;;;;2.14;98.50;94138.28;5263717;56;20136;-75
2021/11/28 05:01:42;;;;;;;1.15;1.02;;;;;;;2.12;98.78;94142.69;5263866;56;20120;-75
2021/11/28 05:06:45;;;;;;;1.30;1.00;;;;;;;2.14;98.91;94157.38;5281123;45;20138;-73
2021/11/28 05:11:48;;;;;;;0.95;0.95;;;;;;;2.15;98.47;94156.13;5283525;56;20138;-73
2021/11/28 05:16:50;;;;;;;1.70;0.98;;;;;;;2.13;98.59;94155.84;5274123;56;20134;-73
2021/11/28 05:21:53;;;;;;;1.00;1.00;;;;;;;2.09;98.88;94157.22;5263808;56;20577;-73
2021/11/28 05:26:55;;;;;;;1.35;1.20;;;;;;;2.16;98.59;94157.66;5264033;56;20116;-73
2021/11/28 05:31:58;;;;;;;0.95;0.95;;;;;;;2.13;98.83;94153.13;5254639;56;20134;-73
2021/11/28 05:37:00;;;;;;;1.35;0.90;;;;;;;2.13;98.52;94165.97;5263161;56;20116;-73
2021/11/28 05:42:03;;;;;;;0.98;0.93;;;;;;;2.14;98.70;94164.78;5263517;56;20558;-73
2021/11/28 05:47:05;;;;;;;0.77;0.77;;;;;;;2.30;98.06;94178.03;5263422;56;20120;-73
2021/11/28 05:52:08;;;;;;;0.88;0.88;;;;;;;2.27;98.13;94172.72;5263712;56;20147;-73
2021/11/28 05:57:10;;;;;;;0.63;0.63;;;;;;;2.22;98.47;94181.56;5263115;56;20198;-73
2021/11/28 06:02:12;;;;;;;1.13;1.13;;;;;;;2.25;98.38;94173.19;5263408;56;20120;-73
2021/11/28 06:07:15;;;;;;;0.90;0.90;;;;;;;2.11;98.45;94190.19;5262647;56;20168;-73
2021/11/28 06:12:17;;;;;;;3.60;1.08;;;;;;;2.10;98.84;94188.69;5263019;56;20125;-73
2021/11/28 06:17:19;;;;;;;1.10;1.10;;;;;;;2.18;98.70;94181.69;5262505;56;20125;-73
2021/11/28 06:22:22;;;;;;;0.75;0.73;;;;;;;2.24;98.22;94184.56;5262410;56;20213;-73
2021/11/28 06:27:25;;;;;;;1.30;1.20;;;;;;;2.28;98.17;94177.75;5262743;56;20129;-73
2021/11/28 06:32:29;;;;;;;0.98;0.98;;;;;;;2.23;98.07;94175.63;5262333;56;20147;-73
2021/11/28 06:37:32;;;;;;;2.47;1.10;;;;;;;2.30;98.25;94178.03;5262526;56;20138;-73
2021/11/28 06:42:39;;;;;;;1.08;1.08;;;;;;;2.21;98.69;94188.19;5262401;56;20130;-73
2021/11/28 06:47:42;;;;;;;1.55;0.98;;;;;;;2.33;98.50;94187.25;5262320;56;20125;-73
2021/11/28 06:52:44;;;;;;;0.93;0.93;;;;;;;2.36;97.80;94187.09;5262253;56;20154;-73
2021/11/28 06:57:46;;;;;;;1.50;1.40;;;;;;;2.40;97.93;94198.56;5262189;56;20143;-73
2021/11/28 07:02:49;;;;;;;3.17;1.63;;;;;;;2.38;98.56;94195.53;5253699;56;20217;-73
2021/11/28 07:07:51;;;;;;;2.17;1.48;;;;;;;2.24;99.17;94198.19;5261788;56;20120;-73
2021/11/28 07:12:54;;;;;;;1.42;1.33;;;;;;;2.28;99.03;94210.44;5262433;56;20116;-78
2021/11/28 07:17:56;;;;;;;0.77;0.77;;;;;;;2.41;97.82;94212.94;5262594;56;20120;-77
2021/11/28 07:23:02;;;;;;;4.78;2.03;;;;;;;2.21;99.16;94218.16;5262152;56;20120;-77
2021/11/28 07:28:05;;;;;;;1.90;1.40;;;;;;;2.43;98.42;94215.97;5262532;56;20148;-78
2021/11/28 07:33:08;;;;;;;1.00;0.98;;;;;;;2.40;97.96;94219.63;5261404;56;20116;-78
2021/11/28 07:38:10;;;;;;;1.27;1.05;;;;;;;2.49;97.36;94214.16;5265562;56;20660;-78
2021/11/28 07:43:13;;;;;;;1.77;1.10;;;;;;;2.47;97.04;94225.47;5265874;56;20172;-77
2021/11/28 07:48:16;;;;;;;1.90;1.08;;;;;;;2.76;95.93;94217.47;5256398;56;20239;-77
2021/11/28 07:53:19;;;;;;;1.83;1.20;;;;;;;2.76;95.42;94214.75;5265446;56;20120;-77
2021/11/28 07:58:21;;;;;;;0.80;0.80;;;;;;;2.92;94.63;94214.34;5265370;56;20647;-77
2021/11/28 08:03:23;;;;;;;1.27;1.17;;;;;;;3.12;94.00;94223.94;5267594;56;20134;-78
2021/11/28 08:08:32;;;;;;;1.58;0.98;;;;;;;3.19;93.36;94226.34;5289565;56;20164;-78
2021/11/28 08:13:34;;;;;;;0.83;0.83;;;;;;;3.26;92.63;94217.78;5267519;56;20116;-77
2021/11/28 08:18:39;;;;;;;0.90;0.90;;;;;;;3.36;92.67;94216.50;5265507;56;20620;-77
2021/11/28 08:23:42;;;;;;;3.33;0.98;;;;;;;3.71;91.60;94230.34;5262027;56;20572;-78
2021/11/28 08:28:45;;;;;;;1.15;1.15;;;;;;;3.79;90.11;94231.47;5259439;56;20112;-78
2021/11/28 08:33:48;;;;;;;1.00;1.00;;;;;;;3.64;89.49;94224.00;5255911;56;20649;-78
2021/11/28 08:38:54;;;;;;;0.80;0.80;;;;;;;3.83;88.17;94226.56;5253490;56;20121;-77
2021/11/28 08:43:57;;;;;;;1.48;1.02;;;;;;;3.95;87.85;94226.31;5254414;56;20116;-77
2021/11/28 08:49:01;;;;;;;0.98;0.98;;;;;;;4.08;88.23;94237.72;5250869;56;20131;-77
2021/11/28 08:54:04;;;;;;;0.80;0.80;;;;;;;4.08;87.22;94239.69;5249856;56;20139;-78
2021/11/28 08:59:06;;;;;;;0.55;0.55;;;;;;;4.10;87.19;94240.72;5261980;56;20108;-78
2021/11/28 09:04:09;;;;;;;0.45;0.45;;;;;;;4.06;86.71;94247.59;5264367;56;20661;-77
2021/11/28 09:09:11;;;;;;;0.77;0.65;;;;;;;4.23;85.93;94259.56;5260213;56;20616;-76
2021/11/28 09:14:14;;;;;;;0.68;0.68;;;;;;;4.67;84.67;94254.84;5234374;56;20126;-77
2021/11/28 09:19:21;;;;;;;0.70;0.70;;;;;;;4.92;82.83;94256.22;5254248;56;20112;-76
2021/11/28 09:24:35;;;;;;;0.80;0.80;;;;;;;5.49;79.88;94249.03;5264073;56;20121;-76
2021/11/28 09:29:40;;;;;;;0.63;0.60;;;;;;;5.25;80.52;94253.19;5266076;56;20311;-77
2021/11/28 09:34:44;;;;;;;0.20;0.20;;;;;;;5.53;79.89;94246.09;5263329;56;20184;-77
2021/11/28 09:39:47;;;;;;;0.40;0.40;;;;;;;4.90;82.16;94245.75;5260562;56;20134;-77
2021/11/28 09:44:49;;;;;;;0.50;0.50;;;;;;;5.40;82.25;94238.22;5259301;56;20671;-76
2021/11/28 09:49:54;;;;;;;0.50;0.50;;;;;;;5.58;79.54;94226.22;5260067;56;20129;-76
2021/11/28 09:54:59;;;;;;;1.70;0.60;;;;;;;5.86;78.15;94234.81;5260274;56;20225;-77
2021/11/28 10:00:05;;;;;;;0.60;0.60;;;;;;;5.57;77.14;94233.69;5257890;56;20103;-76
2021/11/28 10:05:10;;;;;;;0.57;0.57;;;;;;;5.00;80.79;94236.19;5258189;56;20116;-77
2021/11/28 10:10:15;;;;;;;0.93;0.70;;;;;;;4.45;84.12;94231.88;5255701;56;20226;-78
2021/11/28 10:15:21;;;;;;;2.08;0.93;;;;;;;4.51;83.72;94230.72;5245922;56;20157;-78
2021/11/28 10:20:26;;;;;;;0.70;0.70;;;;;;;4.31;85.56;94223.22;5253054;56;20136;-78
2021/11/28 10:25:31;;;;;;;0.60;0.60;;;;;;;4.26;86.65;94221.13;5256981;56;20120;-78
2021/11/28 10:30:35;;;;;;;0.57;0.57;;;;;;;4.32;87.37;94221.97;5260403;56;20134;-77
2021/11/28 10:36:02;;;;;;;1.88;1.05;;;;;;;4.33;86.87;94218.03;5258502;56;20112;-77
2021/11/28 10:41:21;;;;;;;0.70;0.70;;;;;;;4.30;85.11;94207.25;5257653;56;20143;-78
2021/11/28 10:46:33;;;;;;;0.80;0.80;;;;;;;3.90;88.85;94213.31;5255666;56;20120;-77
2021/11/28 10:51:38;;;;;;;1.48;0.70;;;;;;;3.83;88.59;94210.94;5250703;56;20133;-76
2021/11/28 10:56:42;;;;;;;1.33;0.70;;;;;;;3.60;90.00;94209.78;5251964;56;20120;-77
2021/11/28 11:01:45;;;;;;;0.82;0.82;;;;;;;3.81;89.58;94197.00;5252654;56;20164;-76
2021/11/28 11:07:11;;;;;;;2.38;0.80;;;;;;;4.54;86.12;94198.94;5248867;56;20126;-77
2021/11/28 11:12:17;;;;;;;0.95;0.95;;;;;;;4.97;82.65;94198.09;5253976;56;20113;-77
2021/11/28 11:17:20;;;;;;;0.80;0.80;;;;;;;4.69;85.42;94200.41;5260809;56;20111;-76
2021/11/28 11:22:26;;;;;;;1.63;1.02;;;;;;;4.95;83.40;94195.06;5245359;56;20125;-77
2021/11/28 11:27:30;;;;;;;1.20;1.10;;;;;;;4.76;85.12;94191.81;5254112;56;20134;-77
2021/11/28 11:32:42;;;;;;;1.17;0.68;;;;;;;4.87;84.55;94202.16;5262004;56;20187;-77
2021/11/28 11:37:45;;;;;;;0.75;0.75;;;;;;;3.90;88.85;94194.19;5248851;56;20179;-76
2021/11/28 11:42:49;;;;;;;0.82;0.82;;;;;;;4.29;88.24;94197.56;5253011;56;20127;-74
2021/11/28 11:47:53;;;;;;;1.08;0.90;;;;;;;4.17;87.60;94204.06;5264266;56;20125;-75
2021/11/28 11:52:55;;;;;;;0.75;0.75;;;;;;;2.89;93.86;94200.91;5245831;56;20120;-76
2021/11/28 11:58:21;;;;;;;0.82;0.82;;;;;;;2.95;94.42;94199.03;5259532;56;20112;-77
2021/11/28 12:03:24;;;;;;;0.50;0.50;;;;;;;2.92;95.13;94199.22;5242503;56;20577;-77
2021/11/28 12:08:31;;;;;;;0.95;0.73;;;;;;;2.98;95.38;94198.13;5242879;56;20121;-77
2021/11/28 12:13:39;;;;;;;0.75;0.75;;;;;;;3.69;94.41;94192.56;5243467;56;20125;-75
2021/11/28 12:18:45;;;;;;;1.42;0.88;;;;;;;3.58;90.64;94193.09;5243392;56;20108;-74
2021/11/28 12:23:56;;;;;;;1.20;1.10;;;;;;;3.59;91.16;94182.94;5247810;56;20120;-75
2021/11/28 12:29:18;;;;;;;0.73;0.73;;;;;;;3.25;93.58;94184.28;5263224;56;20116;-75
2021/11/28 12:34:24;;;;;;;0.65;0.65;;;;;;;3.63;92.37;94180.78;5258101;56;20601;-77
2021/11/28 12:39:27;;;;;;;0.77;0.77;;;;;;;3.86;90.89;94171.78;5260673;56;20103;-74
2021/11/28 12:44:32;;;;;;;0.93;0.93;;;;;;;3.56;90.89;94184.63;5248631;56;20112;-74
2021/11/28 12:49:37;;;;;;;0.77;0.77;;;;;;;3.42;91.48;94187.31;5253796;56;20115;-74
2021/11/28 12:55:07;;;;;;;0.80;0.80;;;;;;;3.53;91.56;94184.81;5250468;56;20718;-74
2021/11/28 13:00:19;;;;;;;3.22;0.88;;;;;;;3.35;93.43;94182.22;5259217;56;20125;-73
2021/11/28 13:05:27;;;;;;;1.55;1.45;;;;;;;3.33;92.48;94192.84;5255173;56;20135;-73
2021/11/28 13:10:45;;;;;;;1.40;1.30;;;;;;;3.21;93.67;94191.16;5254612;56;20119;-73
2021/11/28 13:15:51;;;;;;;1.98;1.52;;;;;;;3.32;93.45;94183.94;5246469;56;20116;-73
2021/11/28 13:21:05;;;;;;;1.48;1.38;;;;;;;3.38;93.08;94192.22;5253069;56;20259;-73
2021/11/28 13:26:08;;;;;;;1.83;1.73;;;;;;;3.29;94.23;94178.63;5255083;56;20235;-72
2021/11/28 13:31:21;;;;;;;3.25;1.67;;;;;;;3.51;92.71;94179.81;5254792;56;20654;-71
2021/11/28 13:36:45;;;;;;;1.25;1.15;;;;;;;3.24;94.59;94184.75;5249614;56;20136;-72
2021/11/28 13:41:50;;;;;;;1.40;1.30;;;;;;;3.16;95.56;94191.78;5244372;56;20650;-71
2021/11/28 13:46:55;;;;;;;1.52;1.42;;;;;;;3.12;95.57;94183.03;5260711;56;20151;-71
2021/11/28 13:52:01;;;;;;;1.98;1.45;;;;;;;2.91;96.42;94193.00;5250282;56;20160;-71
2021/11/28 13:57:22;;;;;;;1.92;1.80;;;;;;;3.03;96.63;94194.00;5257963;56;20121;-71
2021/11/28 14:02:25;;;;;;;8.05;3.17;;;;;;;2.92;96.77;94195.25;5239547;56;20166;-70
2021/11/28 14:07:36;;;;;;;3.35;2.47;;;;;;;2.78;96.74;94195.94;5260147;56;20203;-71
2021/11/28 14:12:41;;;;;;;2.40;1.92;;;;;;;2.95;97.43;94195.56;5259938;56;20591;-71
2021/11/28 14:17:56;;;;;;;3.03;2.45;;;;;;;2.84;96.75;94199.56;5251184;56;20099;-71
2021/11/28 14:22:59;;;;;;;3.08;2.65;;;;;;;2.85;96.66;94205.75;5246103;56;20107;-71
2021/11/28 14:28:20;;;;;;;2.40;2.20;;;;;;;2.73;97.92;94209.47;5261218;56;20231;-71
2021/11/28 14:33:27;;;;;;;2.38;1.80;;;;;;;2.80;96.76;94211.88;5251942;56;20665;-71
2021/11/28 14:38:34;;;;;;;1.75;1.65;;;;;;;2.75;97.58;94212.50;5256309;56;20107;-71
2021/11/28 14:43:58;;;;;;;3.42;2.47;;;;;;;2.62;98.45;94218.13;5243989;56;20199;-71
2021/11/28 14:49:08;;;;;;;5.00;3.72;;;;;;;2.64;98.19;94218.47;5247258;56;20116;-70
2021/11/28 14:54:16;;;;;;;3.40;2.85;;;;;;;2.78;98.39;94217.75;5261119;56;20115;-71
2021/11/28 14:59:26;;;;;;;6.50;4.70;;;;;;;2.75;97.55;94204.31;5251664;56;20150;-73
2021/11/28 15:04:29;;;;;;;6.18;4.20;;;;;;;2.52;97.88;94192.16;5252098;56;20116;-73
2021/11/28 15:09:46;;;;;;;3.95;3.60;;;;;;;2.26;99.72;94187.59;5252297;56;20138;-73
2021/11/28 15:14:49;;;;;;;4.97;4.07;;;;;;;2.22;99.47;94198.63;5257175;56;20125;-72
2021/11/28 15:20:11;;;;;;;6.63;4.72;;;;;;;2.01;99.98;94205.81;5262055;56;20134;-72
2021/11/28 15:25:16;;;;;;;4.47;3.33;;;;;;;1.97;99.83;94197.03;5260560;56;20140;-73
2021/11/28 15:30:24;;;;;;;3.30;2.70;;;;;;;2.02;99.00;94206.56;5261151;56;20120;-72
2021/11/28 15:35:28;;;;;;;3.45;2.22;;;;;;;2.03;98.83;94208.09;5252321;56;20129;-73
2021/11/28 15:40:33;;;;;;;5.35;3.30;;;;;;;2.05;98.38;94211.09;5252008;56;20319;-73
2021/11/28 15:45:35;;;;;;;2.97;2.67;;;;;;;2.02;98.73;94217.47;5259712;56;20121;-73
2021/11/28 15:50:38;;;;;;;2.95;2.65;;;;;;;2.14;98.69;94219.25;5256024;56;20160;-73
2021/11/28 15:55:41;;;;;;;3.25;2.70;;;;;;;2.14;98.83;94220.00;5256446;56;20631;-73
2021/11/28 16:00:43;;;;;;;3.53;2.42;;;;;;;2.12;98.17;94221.69;5261729;56;20609;-72
2021/11/28 16:05:45;;;;;;;2.58;2.38;;;;;;;2.20;98.19;94231.03;5263329;56;20130;-72
2021/11/28 16:10:51;;;;;;;5.20;3.50;;;;;;;2.28;98.60;94236.91;5263971;56;20105;-71
2021/11/28 16:15:54;;;;;;;4.82;3.53;;;;;;;2.23;98.36;94238.28;5262555;56;20147;-71
2021/11/28 16:20:57;;;;;;;5.10;3.38;;;;;;;2.22;97.98;94242.22;5263219;56;20120;-71
2021/11/28 16:25:59;;;;;;;2.33;1.88;;;;;;;2.28;98.83;94247.81;5263879;56;20121;-71
2021/11/28 16:31:02;;;;;;;2.13;1.73;;;;;;;2.33;98.31;94256.09;5260491;56;20120;-71
2021/11/28 16:36:05;;;;;;;2.60;2.17;;;;;;;2.51;97.56;94247.88;5259613;56;20121;-72
2021/11/28 16:41:09;;;;;;;2.65;2.45;;;;;;;2.69;98.58;94244.34;5263188;56;20107;-72
2021/11/28 16:46:12;;;;;;;2.53;2.33;;;;;;;2.72;96.34;94233.25;5261779;56;20234;-72
2021/11/28 16:51:14;;;;;;;2.45;2.25;;;;;;;2.54;96.36;94240.75;5254397;56;20628;-72
2021/11/28 16:56:19;;;;;;;2.63;2.08;;;;;;;2.39;96.81;94229.75;5260252;56;20116;-72
2021/11/28 17:01:21;;;;;;;3.20;2.72;;;;;;;2.28;97.95;94248.56;5254196;56;20134;-73
2021/11/28 17:06:27;;;;;;;4.75;2.50;;;;;;;2.33;98.43;94252.66;5261487;56;20178;-72
2021/11/28 17:11:30;;;;;;;3.75;3.38;;;;;;;1.99;99.71;94249.09;5261267;56;20111;-73
2021/11/28 17:16:32;;;;;;;3.15;2.85;;;;;;;1.95;100.00;94250.44;5260475;56;20139;-71
2021/11/28 17:21:36;;;;;;;3.45;3.15;;;;;;;2.01;100.00;94252.09;5260560;56;20112;-72
2021/11/28 17:26:39;;;;;;;4.10;3.35;;;;;;;1.95;100.00;94242.28;5254170;56;20125;-71
2021/11/28 17:31:41;;;;;;;5.30;3.95;;;;;;;1.83;100.00;94249.41;5261829;56;20116;-71
2021/11/28 17:36:44;;;;;;;4.40;3.85;;;;;;;2.05;100.00;94257.41;5260203;56;20631;-71
2021/11/28 17:41:46;;;;;;;3.40;3.10;;;;;;;2.21;99.36;94261.75;5254592;56;20932;-72
2021/11/28 17:46:49;;;;;;;3.65;3.15;;;;;;;2.20;98.96;94274.63;5257405;56;20107;-72
2021/11/28 17:51:51;;;;;;;2.88;2.58;;;;;;;2.32;98.70;94276.41;5259104;56;20124;-72
2021/11/28 17:56:54;;;;;;;3.17;2.88;;;;;;;2.34;98.53;94263.09;5259140;56;20120;-71
2021/11/28 18:01:57;;;;;;;3.47;3.15;;;;;;;2.29;98.86;94273.84;5260592;56;20111;-72
2021/11/28 18:07:00;;;;;;;5.38;3.58;;;;;;;2.27;98.93;94281.72;5260740;56;20197;-72
2021/11/28 18:12:03;;;;;;;5.97;4.55;;;;;;;2.27;99.38;94282.47;5261739;56;20125;-72
2021/11/28 18:17:05;;;;;;;7.32;3.78;;;;;;;2.26;98.73;94291.13;5261223;56;20614;-72
2021/11/28 18:22:08;;;;;;;8.60;4.60;;;;;;;2.24;97.88;94294.28;5261081;56;20588;-71
2021/11/28 18:27:10;;;;;;;4.70;3.67;;;;;;;2.21;96.98;94289.75;5260789;56;20125;-72
2021/11/28 18:32:13;;;;;;;4.45;3.60;;;;;;;2.25;97.86;94289.59;5251940;56;20242;-72
2021/11/28 18:37:16;;;;;;;3.38;3.08;;;;;;;2.18;98.89;94290.66;5261155;56;20120;-72
2021/11/28 18:42:18;;;;;;;4.60;2.70;;;;;;;2.29;98.51;94279.28;5260813;56;20654;-72
2021/11/28 18:47:21;;;;;;;4.25;3.47;;;;;;;2.15;98.51;94280.69;5260067;56;20603;-72
2021/11/28 18:52:23;;;;;;;6.03;3.53;;;;;;;2.12;99.01;94279.66;5250499;56;20129;-73
2021/11/28 18:57:25;;;;;;;5.60;3.58;;;;;;;2.15;98.37;94283.41;5272275;56;20137;-72
2021/11/28 19:02:28;;;;;;;5.78;4.25;;;;;;;1.85;99.68;94279.69;5282092;56;20129;-72
2021/11/28 19:07:30;;;;;;;7.40;5.63;;;;;;;1.93;99.62;94259.09;5281677;56;20678;-72
2021/11/28 19:12:33;;;;;;;4.60;3.67;;;;;;;2.02;99.40;94259.06;5272669;56;20120;-72
2021/11/28 19:17:35;;;;;;;5.68;4.28;;;;;;;2.01;99.26;94267.72;5271467;56;20143;-72
2021/11/28 19:22:38;;;;;;;6.28;5.13;;;;;;;2.03;99.49;94279.66;5258819;56;20130;-72
2021/11/28 19:27:41;;;;;;;13.57;7.18;;;;;;;1.87;100.00;94279.22;5259616;56;20124;-72
2021/11/28 19:33:05;;;;;;;31.05;11.55;;;;;;;2.00;100.00;94279.81;5263008;56;20125;-71
2021/11/28 19:38:08;;;;;;;20.75;8.25;;;;;;;1.99;100.00;94302.81;5254234;56;20128;-72
2021/11/28 19:43:11;;;;;;;12.73;6.72;;;;;;;2.06;100.00;94307.94;5262917;56;20629;-71
2021/11/28 19:48:13;;;;;;;13.50;8.52;;;;;;;2.04;100.00;94321.25;5262677;56;20112;-72
2021/11/28 19:53:16;;;;;;;10.75;7.43;;;;;;;2.04;99.75;94323.97;5249674;56;20120;-71
2021/11/28 19:58:18;;;;;;;8.27;5.35;;;;;;;1.95;99.98;94330.19;5262487;56;20116;-72
2021/11/28 20:03:21;;;;;;;9.80;5.03;;;;;;;2.08;99.49;94338.22;5262733;56;20116;-72
2021/11/28 20:08:24;;;;;;;7.25;5.60;;;;;;;2.02;99.43;94348.94;5263127;56;20226;-71
2021/11/28 20:13:27;;;;;;;7.82;5.13;;;;;;;2.05;99.98;94347.28;5262561;56;21399;-72
2021/11/28 20:18:29;;;;;;;5.60;4.60;;;;;;;1.99;100.00;94357.28;5253664;56;20585;-72
2021/11/28 20:23:32;;;;;;;10.52;5.80;;;;;;;1.98;100.00;94353.03;5262919;56;20565;-71
2021/11/28 20:28:34;;;;;;;10.55;5.47;;;;;;;1.90;100.00;94354.56;5262946;56;20160;-71
2021/11/28 20:33:37;;;;;;;7.72;5.60;;;;;;;2.03;100.00;94350.47;5253078;56;20129;-72
2021/11/28 20:38:39;;;;;;;8.30;4.85;;;;;;;2.16;99.60;94358.47;5259545;56;20116;-72
2021/11/28 20:43:42;;;;;;;5.03;3.53;;;;;;;2.17;99.78;94349.84;5259255;56;20124;-71
2021/11/28 20:48:45;;;;;;;4.50;3.33;;;;;;;2.08;100.00;94362.72;5259269;56;20116;-72
2021/11/28 20:53:51;;;;;;;6.07;3.90;;;;;;;2.08;100.00;94362.72;5260260;56;20124;-71
2021/11/28 20:58:54;;;;;;;5.07;3.72;;;;;;;2.09;99.83;94362.25;5260843;56;20133;-71
2021/11/28 21:03:56;;;;;;;3.58;3.25;;;;;;;2.14;100.00;94366.34;5266933;56;20593;-72
2021/11/28 21:09:00;;;;;;;5.60;4.15;;;;;;;2.05;100.00;94356.22;5283328;56;20191;-70
2021/11/28 21:14:07;;;;;;;16.70;6.32;;;;;;;1.91;100.00;94361.50;5283070;56;20115;-71
2021/11/28 21:19:13;;;;;;;9.02;5.22;;;;;;;1.97;100.00;94348.78;5281953;56;20146;-71
2021/11/28 21:24:15;;;;;;;12.82;7.00;;;;;;;1.96;100.00;94367.13;5275105;56;20198;-72
2021/11/28 21:29:18;;;;;;;30.30;10.48;;;;;;;1.86;100.00;94368.31;5283159;56;20606;-71
2021/11/28 21:34:20;;;;;;;7.28;5.22;;;;;;;1.91;100.00;94356.81;5282992;56;20111;-71
2021/11/28 21:39:23;;;;;;;5.32;3.88;;;;;;;1.98;100.00;94372.09;5282735;56;20133;-71
2021/11/28 21:44:25;;;;;;;4.75;4.25;;;;;;;1.96;100.00;94367.13;5268153;56;20112;-72
2021/11/28 21:49:28;;;;;;;8.23;5.65;;;;;;;1.72;100.00;94360.72;5259350;56;20235;-72
2021/11/28 21:54:30;;;;;;;10.10;5.63;;;;;;;1.91;100.00;94364.22;5257273;56;20116;-71
2021/11/28 21:59:32;;;;;;;6.72;4.68;;;;;;;1.94;100.00;94377.72;5268065;56;20124;-71
2021/11/28 22:04:35;;;;;;;5.90;4.20;;;;;;;1.87;100.00;94382.69;5262682;56;20784;-72
2021/11/28 22:09:37;;;;;;;9.07;6.05;;;;;;;2.04;100.00;94384.66;5261897;56;20192;-72
2021/11/28 22:14:39;;;;;;;7.03;4.47;;;;;;;2.00;100.00;94380.56;5262161;56;20107;-72
2021/11/28 22:19:42;;;;;;;6.60;4.72;;;;;;;1.62;100.00;94391.13;5238562;56;20209;-72
2021/11/28 22:24:44;;;;;;;6.00;4.40;;;;;;;1.69;100.00;94388.09;5258062;56;20152;-72
2021/11/28 22:29:47;;;;;;;7.82;4.60;;;;;;;1.47;100.00;94382.75;5259177;56;20183;-72
2021/11/28 22:34:49;;;;;;;6.50;3.67;;;;;;;1.59;100.00;94381.13;5261766;56;20120;-72
2021/11/28 22:39:52;;;;;;;6.43;4.65;;;;;;;1.60;100.00;94388.09;5261682;56;20124;-72
2021/11/28 22:44:54;;;;;;;5.72;4.22;;;;;;;1.53;100.00;94389.13;5258471;56;20130;-72
2021/11/28 22:49:57;;;;;;;6.03;4.03;;;;;;;1.42;100.00;94389.53;5261460;56;20142;-72
2021/11/28 22:54:59;;;;;;;6.07;3.80;;;;;;;1.55;100.00;94389.44;5261721;56;20111;-72
2021/11/28 23:00:14;;;;;;;3.35;3.05;;;;;;;1.63;100.00;94392.66;5262080;56;20138;-73
2021/11/28 23:05:17;;;;;;;3.53;3.13;;;;;;;1.36;100.00;94385.16;5262688;56;20125;-72
2021/11/28 23:10:19;;;;;;;6.80;4.28;;;;;;;1.32;100.00;94395.41;5265784;56;20137;-72
2021/11/28 23:15:22;;;;;;;4.07;2.97;;;;;;;1.32;100.00;94385.31;5265016;56;20125;-72
2021/11/28 23:20:26;;;;;;;4.70;4.25;;;;;;;1.23;100.00;94395.38;5265315;56;20107;-72
2021/11/28 23:25:28;;;;;;;4.78;3.45;;;;;;;1.38;100.00;94388.94;5264902;56;20147;-72
2021/11/28 23:30:30;;;;;;;5.72;4.25;;;;;;;1.45;100.00;94401.50;5265686;56;20132;-73
2021/11/28 23:35:33;;;;;;;6.00;4.22;;;;;;;1.55;100.00;94407.72;5264657;56;20112;-72
2021/11/28 23:40:35;;;;;;;4.97;4.10;;;;;;;1.48;100.00;94418.91;5255796;56;20668;-72
2021/11/28 23:45:38;;;;;;;5.18;4.55;;;;;;;1.33;100.00;94418.72;5260129;56;20125;-72
2021/11/28 23:50:40;;;;;;;11.05;6.22;;;;;;;1.20;100.00;94421.53;5284239;56;20230;-72
2021/11/28 23:55:44;;;;;;;6.68;4.22;;;;;;;1.42;100.00;94424.91;5284776;56;20695;-72
